createdAt,value
2022-11-22T00:00:40.946Z,339.30
2022-11-22T00:01:43.761Z,132.88
2022-11-22T00:02:47.848Z,211.82
2022-11-22T00:03:50.508Z,183.68
2022-11-22T00:04:54.266Z,189.30
2022-11-22T00:05:57.994Z,254.70
2022-11-22T00:07:00.926Z,227.57
2022-11-22T00:08:05.277Z,132.73
2022-11-22T00:09:08.136Z,121.10
2022-11-22T00:10:13.856Z,174.20
2022-11-22T00:11:16.640Z,238.55
2022-11-22T00:12:21.878Z,184.48
2022-11-22T00:13:24.528Z,166.30
2022-11-22T00:14:29.215Z,128.82
2022-11-22T00:15:31.992Z,142.48
2022-11-22T00:16:36.004Z,187.70
2022-11-22T00:17:39.177Z,180.30
2022-11-22T00:18:42.886Z,163.15
2022-11-22T00:19:49.938Z,229.35
2022-11-22T00:20:53.687Z,480.73
2022-11-22T00:21:56.361Z,355.40
2022-11-22T00:23:00.188Z,325.25
2022-11-22T00:24:02.837Z,225.13
2022-11-22T00:25:07.685Z,139.70
2022-11-22T00:26:12.367Z,143.18
2022-11-22T00:27:16.186Z,139.13
2022-11-22T00:28:20.256Z,148.75
2022-11-22T00:29:23.971Z,109.32
2022-11-22T00:30:26.642Z,122.03
2022-11-22T00:31:30.409Z,113.50
2022-11-22T00:32:33.049Z,124.45
2022-11-22T00:33:36.818Z,119.50
2022-11-22T00:34:39.527Z,107.70
2022-11-22T00:35:43.218Z,115.90
2022-11-22T00:36:45.898Z,108.25
2022-11-22T00:37:49.684Z,100.45
2022-11-22T00:38:53.029Z,103.20
2022-11-22T00:39:56.737Z,94.13
2022-11-22T00:40:59.397Z,94.68
2022-11-22T00:42:03.147Z,93.75
2022-11-22T00:43:05.765Z,88.57
2022-11-22T00:44:10.956Z,88.18
2022-11-22T00:45:13.677Z,103.10
2022-11-22T00:46:17.406Z,99.38
2022-11-22T00:47:20.029Z,83.15
2022-11-22T00:48:23.706Z,90.65
2022-11-22T00:49:26.399Z,84.00
2022-11-22T00:50:30.466Z,76.57
2022-11-22T00:51:34.299Z,78.70
2022-11-22T00:52:36.946Z,77.85
2022-11-22T00:53:40.696Z,72.35
2022-11-22T00:54:50.036Z,76.00
2022-11-22T00:55:55.276Z,79.38
2022-11-22T00:56:57.968Z,71.00
2022-11-22T00:58:01.730Z,76.50
2022-11-22T00:59:04.368Z,71.75
2022-11-22T01:00:11.203Z,80.47
2022-11-22T01:01:13.918Z,76.10
2022-11-22T01:02:17.675Z,78.35
2022-11-22T01:03:20.316Z,59.63
2022-11-22T01:04:24.229Z,70.07
2022-11-22T01:05:26.859Z,73.38
2022-11-22T01:06:30.566Z,83.72
2022-11-22T01:07:33.233Z,114.70
2022-11-22T01:08:37.154Z,113.82
2022-11-22T01:09:39.797Z,93.65
2022-11-22T01:10:43.476Z,90.78
2022-11-22T01:11:46.369Z,73.90
2022-11-22T01:12:50.178Z,77.38
2022-11-22T01:13:52.887Z,89.43
2022-11-22T01:14:56.668Z,75.15
2022-11-22T01:16:01.918Z,77.45
2022-11-22T01:17:05.569Z,79.95
2022-11-22T01:18:08.216Z,88.90
2022-11-22T01:19:12.223Z,84.20
2022-11-22T01:20:14.836Z,92.22
2022-11-22T01:21:18.558Z,80.75
2022-11-22T01:22:21.259Z,83.85
2022-11-22T01:23:25.006Z,89.50
2022-11-22T01:24:27.693Z,81.93
2022-11-22T01:25:31.467Z,90.78
2022-11-22T01:26:34.549Z,94.47
2022-11-22T01:27:38.407Z,91.30
2022-11-22T01:28:41.040Z,96.80
2022-11-22T01:29:44.748Z,97.10
2022-11-22T01:30:50.611Z,96.07
2022-11-22T01:31:56.016Z,120.32
2022-11-22T01:32:58.727Z,190.68
2022-11-22T01:34:02.468Z,152.27
2022-11-22T01:35:05.834Z,196.65
2022-11-22T01:36:09.786Z,251.02
2022-11-22T01:37:12.534Z,203.10
2022-11-22T01:38:16.367Z,137.18
2022-11-22T01:39:19.177Z,157.18
2022-11-22T01:40:22.968Z,137.27
2022-11-22T01:41:25.656Z,164.85
2022-11-22T01:42:43.662Z,108.88
2022-11-22T01:43:46.362Z,136.65
2022-11-22T01:44:50.335Z,196.05
2022-11-22T01:45:53.898Z,212.60
2022-11-22T01:46:59.666Z,350.48
2022-11-22T01:48:04.248Z,220.00
2022-11-22T01:50:49.286Z,299.25
2022-11-22T01:51:53.731Z,187.32
2022-11-22T01:52:58.115Z,190.00
2022-11-22T01:54:06.267Z,222.23
2022-11-22T01:55:11.999Z,247.75
2022-11-22T01:56:17.688Z,208.68
2022-11-22T01:57:23.535Z,232.63
2022-11-22T01:58:28.924Z,234.30
2022-11-22T01:59:34.674Z,236.52
2022-11-22T02:00:38.730Z,208.05
2022-11-22T02:01:42.689Z,138.25
2022-11-22T02:02:48.005Z,147.32
2022-11-22T02:03:53.305Z,230.73
2022-11-22T02:04:57.603Z,203.40
2022-11-22T02:06:01.362Z,140.93
2022-11-22T02:07:09.408Z,171.15
2022-11-22T02:08:17.083Z,177.98
2022-11-22T02:09:19.725Z,158.73
2022-11-22T02:10:25.248Z,154.38
2022-11-22T02:11:33.612Z,242.77
2022-11-22T02:12:38.075Z,218.88
2022-11-22T02:13:43.355Z,166.88
2022-11-22T02:14:47.603Z,300.40
2022-11-22T02:15:50.657Z,317.75
2022-11-22T02:16:54.472Z,313.83
2022-11-22T02:17:58.896Z,247.63
2022-11-22T02:19:02.691Z,243.65
2022-11-22T02:20:07.915Z,242.40
2022-11-22T02:21:12.013Z,226.77
2022-11-22T02:22:24.122Z,222.93
2022-11-22T02:23:36.263Z,241.60
2022-11-22T02:24:44.109Z,290.63
2022-11-22T02:25:54.935Z,264.08
2022-11-22T02:26:57.843Z,414.63
2022-11-22T02:28:01.579Z,232.63
2022-11-22T02:29:07.233Z,186.00
2022-11-22T02:30:12.050Z,144.15
2022-11-22T02:31:34.474Z,140.75
2022-11-22T02:32:38.329Z,144.77
2022-11-22T02:33:40.999Z,126.85
2022-11-22T02:34:46.044Z,107.78
2022-11-22T02:35:49.135Z,114.43
2022-11-22T02:36:55.222Z,125.65
2022-11-22T02:37:59.480Z,118.95
2022-11-22T02:39:03.133Z,131.57
2022-11-22T02:40:10.104Z,140.27
2022-11-22T02:41:14.245Z,118.03
2022-11-22T02:42:18.126Z,117.38
2022-11-22T02:43:22.395Z,115.50
2022-11-22T02:44:26.309Z,121.80
2022-11-22T02:45:29.154Z,108.20
2022-11-22T02:46:32.856Z,114.43
2022-11-22T02:47:35.563Z,118.93
2022-11-22T02:48:42.798Z,107.30
2022-11-22T02:49:45.508Z,122.40
2022-11-22T02:50:49.354Z,103.97
2022-11-22T02:51:52.737Z,115.70
2022-11-22T02:52:56.544Z,118.32
2022-11-22T02:53:59.227Z,129.55
2022-11-22T02:55:02.964Z,122.20
2022-11-22T02:56:06.064Z,126.90
2022-11-22T02:57:12.032Z,116.75
2022-11-22T02:58:14.775Z,123.75
2022-11-22T02:59:18.584Z,111.35
2022-11-22T03:00:21.323Z,106.68
2022-11-22T03:01:25.157Z,99.47
2022-11-22T03:02:27.947Z,112.20
2022-11-22T03:03:32.436Z,105.53
2022-11-22T03:04:36.205Z,107.50
2022-11-22T03:05:38.831Z,112.53
2022-11-22T03:06:42.575Z,98.30
2022-11-22T03:07:45.389Z,116.88
2022-11-22T03:08:54.667Z,92.22
2022-11-22T03:09:58.721Z,97.18
2022-11-22T03:11:02.464Z,94.75
2022-11-22T03:12:05.653Z,91.57
2022-11-22T03:13:10.934Z,92.43
2022-11-22T03:14:14.655Z,94.30
2022-11-22T03:15:18.546Z,86.05
2022-11-22T03:16:21.173Z,94.88
2022-11-22T03:17:24.891Z,91.65
2022-11-22T03:18:27.624Z,91.95
2022-11-22T03:19:31.557Z,91.45
2022-11-22T03:20:34.427Z,94.80
2022-11-22T03:21:38.254Z,90.60
2022-11-22T03:22:41.020Z,93.07
2022-11-22T03:23:44.883Z,90.78
2022-11-22T03:24:48.669Z,90.75
2022-11-22T03:25:51.360Z,94.88
2022-11-22T03:26:58.933Z,98.32
2022-11-22T03:28:01.665Z,86.45
2022-11-22T03:29:07.020Z,89.82
2022-11-22T03:30:10.773Z,89.93
2022-11-22T03:31:14.446Z,95.63
2022-11-22T03:32:17.354Z,78.43
2022-11-22T03:33:22.162Z,85.93
2022-11-22T03:34:24.811Z,81.15
2022-11-22T03:35:28.568Z,93.80
2022-11-22T03:36:31.274Z,95.28
2022-11-22T03:37:35.033Z,95.57
2022-11-22T03:38:37.693Z,97.72
2022-11-22T03:39:41.374Z,78.55
2022-11-22T03:40:46.663Z,77.70
2022-11-22T03:41:50.473Z,88.32
2022-11-22T03:42:53.236Z,89.65
2022-11-22T03:43:58.230Z,93.00
2022-11-22T03:45:03.588Z,91.38
2022-11-22T03:46:06.411Z,96.80
2022-11-22T03:47:10.215Z,111.15
2022-11-22T03:48:13.114Z,95.03
2022-11-22T03:49:17.015Z,100.93
2022-11-22T03:50:20.833Z,86.25
2022-11-22T03:51:23.516Z,79.78
2022-11-22T03:52:27.263Z,92.25
2022-11-22T03:53:29.956Z,92.78
2022-11-22T03:54:33.692Z,97.68
2022-11-22T03:55:36.635Z,93.05
2022-11-22T03:56:40.410Z,93.68
2022-11-22T03:57:43.073Z,85.10
2022-11-22T03:58:46.876Z,73.20
2022-11-22T03:59:49.528Z,90.20
2022-11-22T04:00:54.645Z,83.97
2022-11-22T04:01:57.488Z,87.80
2022-11-22T04:03:01.350Z,87.57
2022-11-22T04:04:04.427Z,77.75
2022-11-22T04:05:08.915Z,78.07
2022-11-22T04:06:11.585Z,81.85
2022-11-22T04:07:15.373Z,73.90
2022-11-22T04:08:18.137Z,76.63
2022-11-22T04:09:21.945Z,71.43
2022-11-22T04:10:25.043Z,80.75
2022-11-22T04:11:28.785Z,85.32
2022-11-22T04:12:31.545Z,99.75
2022-11-22T04:13:49.066Z,105.25
2022-11-22T04:15:10.775Z,75.32
2022-11-22T04:16:14.964Z,67.22
2022-11-22T04:17:38.816Z,84.03
2022-11-22T04:18:41.473Z,104.28
2022-11-22T04:20:07.655Z,84.15
2022-11-22T04:21:28.773Z,74.55
2022-11-22T04:22:31.436Z,82.20
2022-11-22T04:23:35.243Z,86.72
2022-11-22T04:24:56.365Z,90.05
2022-11-22T04:25:59.076Z,96.68
2022-11-22T04:27:02.847Z,115.13
2022-11-22T04:28:06.555Z,84.07
2022-11-22T04:29:10.721Z,103.35
2022-11-22T04:30:18.959Z,105.35
2022-11-22T04:31:43.080Z,85.85
2022-11-22T04:32:46.950Z,79.18
2022-11-22T04:33:49.665Z,96.70
2022-11-22T04:34:53.416Z,88.55
2022-11-22T04:35:56.194Z,85.15
2022-11-22T04:36:59.994Z,85.80
2022-11-22T04:38:02.675Z,84.32
2022-11-22T04:39:06.515Z,81.07
2022-11-22T04:40:11.648Z,84.03
2022-11-22T04:41:14.381Z,76.95
2022-11-22T04:42:47.025Z,80.93
2022-11-22T04:44:07.808Z,74.93
2022-11-22T04:45:12.240Z,74.00
2022-11-22T04:46:15.686Z,79.03
2022-11-22T04:47:38.626Z,76.70
2022-11-22T04:48:42.695Z,67.85
2022-11-22T04:49:45.455Z,73.88
2022-11-22T04:51:06.303Z,69.70
2022-11-22T04:52:27.944Z,75.13
2022-11-22T04:53:32.042Z,69.80
2022-11-22T04:54:34.795Z,67.30
2022-11-22T04:55:38.512Z,67.40
2022-11-22T04:56:41.245Z,69.32
2022-11-22T04:57:45.035Z,59.83
2022-11-22T04:58:47.786Z,61.65
2022-11-22T04:59:51.695Z,69.75
2022-11-22T05:00:54.381Z,60.13
2022-11-22T05:01:58.202Z,61.30
2022-11-22T05:03:02.689Z,59.45
2022-11-22T05:04:06.684Z,58.88
2022-11-22T05:05:10.044Z,55.35
2022-11-22T05:06:15.813Z,56.65
2022-11-22T05:07:18.700Z,67.35
2022-11-22T05:08:22.471Z,59.53
2022-11-22T05:09:25.200Z,55.97
2022-11-22T05:10:28.935Z,55.50
2022-11-22T05:11:31.573Z,53.97
2022-11-22T05:12:35.366Z,48.72
2022-11-22T05:13:39.200Z,53.92
2022-11-22T05:14:43.047Z,51.35
2022-11-22T05:15:45.696Z,52.03
2022-11-22T05:16:49.466Z,52.13
2022-11-22T05:17:52.197Z,45.83
2022-11-22T05:19:00.405Z,50.15
2022-11-22T05:20:03.356Z,47.63
2022-11-22T05:21:08.143Z,40.78
2022-11-22T05:22:10.801Z,41.40
2022-11-22T05:23:31.975Z,48.33
2022-11-22T05:24:34.646Z,40.50
2022-11-22T05:25:38.407Z,43.63
2022-11-22T05:26:42.215Z,43.10
2022-11-22T05:27:45.064Z,38.60
2022-11-22T05:28:48.776Z,40.00
2022-11-22T05:29:51.393Z,40.67
2022-11-22T05:30:55.145Z,44.83
2022-11-22T05:31:57.871Z,38.28
2022-11-22T05:33:01.575Z,41.08
2022-11-22T05:34:05.616Z,39.05
2022-11-22T05:35:10.032Z,38.70
2022-11-22T05:36:13.274Z,38.53
2022-11-22T05:37:16.998Z,40.65
2022-11-22T05:38:19.683Z,38.53
2022-11-22T05:39:23.392Z,35.10
2022-11-22T05:40:26.647Z,37.63
2022-11-22T05:41:30.362Z,36.47
2022-11-22T05:42:33.696Z,39.53
2022-11-22T05:43:37.446Z,35.60
2022-11-22T05:44:40.146Z,41.35
2022-11-22T05:45:43.964Z,39.72
2022-11-22T05:46:46.666Z,35.58
2022-11-22T05:47:50.406Z,41.15
2022-11-22T05:48:54.567Z,39.22
2022-11-22T05:49:59.727Z,42.38
2022-11-22T05:51:05.355Z,39.05
2022-11-22T05:52:09.117Z,42.80
2022-11-22T05:53:12.160Z,38.00
2022-11-22T05:54:16.095Z,40.38
2022-11-22T05:55:18.795Z,37.47
2022-11-22T05:56:24.634Z,37.75
2022-11-22T05:57:27.934Z,36.50
2022-11-22T05:58:31.641Z,36.10
2022-11-22T05:59:34.444Z,37.72
2022-11-22T06:00:38.166Z,38.97
2022-11-22T06:01:42.267Z,36.20
2022-11-22T06:02:45.010Z,36.17
2022-11-22T06:03:49.258Z,36.47
2022-11-22T06:04:52.096Z,39.92
2022-11-22T06:05:57.267Z,36.97
2022-11-22T06:06:59.874Z,39.78
2022-11-22T06:08:03.721Z,46.55
2022-11-22T06:09:06.474Z,39.22
2022-11-22T06:10:11.133Z,40.58
2022-11-22T06:11:15.666Z,48.92
2022-11-22T06:12:19.388Z,46.50
2022-11-22T06:13:22.071Z,44.22
2022-11-22T06:14:25.789Z,50.90
2022-11-22T06:15:28.685Z,48.17
2022-11-22T06:16:32.828Z,51.92
2022-11-22T06:17:35.503Z,44.70
2022-11-22T06:18:39.505Z,43.78
2022-11-22T06:19:42.447Z,47.40
2022-11-22T06:20:46.373Z,42.95
2022-11-22T06:21:50.415Z,45.30
2022-11-22T06:22:54.164Z,47.25
2022-11-22T06:23:56.897Z,40.22
2022-11-22T06:25:00.736Z,37.45
2022-11-22T06:26:04.819Z,42.72
2022-11-22T06:27:08.531Z,40.08
2022-11-22T06:28:11.206Z,42.08
2022-11-22T06:29:15.173Z,36.05
2022-11-22T06:30:17.915Z,36.67
2022-11-22T06:31:23.179Z,46.63
2022-11-22T06:32:25.975Z,46.13
2022-11-22T06:33:29.970Z,38.25
2022-11-22T06:34:33.793Z,41.83
2022-11-22T06:35:36.445Z,37.90
2022-11-22T06:36:40.542Z,44.05
2022-11-22T06:37:45.775Z,41.40
2022-11-22T06:38:48.838Z,42.90
2022-11-22T06:39:52.655Z,37.88
2022-11-22T06:41:00.425Z,39.42
2022-11-22T06:42:04.176Z,38.95
2022-11-22T06:43:06.776Z,37.63
2022-11-22T06:44:11.313Z,45.00
2022-11-22T06:45:14.266Z,51.92
2022-11-22T06:46:18.818Z,48.20
2022-11-22T06:47:21.588Z,43.35
2022-11-22T06:48:25.584Z,48.15
2022-11-22T06:49:28.813Z,45.28
2022-11-22T06:50:32.797Z,50.25
2022-11-22T06:51:35.522Z,46.60
2022-11-22T06:52:39.375Z,44.97
2022-11-22T06:53:48.567Z,55.65
2022-11-22T06:54:52.957Z,55.63
2022-11-22T06:56:01.590Z,51.92
2022-11-22T06:57:05.519Z,60.97
2022-11-22T06:58:08.334Z,57.75
2022-11-22T06:59:12.246Z,59.20
2022-11-22T07:00:16.104Z,57.15
2022-11-22T07:01:21.752Z,58.47
2022-11-22T07:02:24.556Z,57.60
2022-11-22T07:03:28.313Z,59.92
2022-11-22T07:04:31.986Z,57.05
2022-11-22T07:05:34.719Z,54.88
2022-11-22T07:06:39.746Z,60.20
2022-11-22T07:07:42.564Z,57.85
2022-11-22T07:08:48.166Z,58.97
2022-11-22T07:09:56.223Z,59.72
2022-11-22T07:11:03.031Z,51.60
2022-11-22T07:12:07.104Z,56.13
2022-11-22T07:13:09.799Z,57.63
2022-11-22T07:14:13.604Z,56.65
2022-11-22T07:15:16.493Z,57.78
2022-11-22T07:16:22.156Z,59.38
2022-11-22T07:17:24.836Z,55.53
2022-11-22T07:18:28.723Z,65.10
2022-11-22T07:19:33.463Z,61.20
2022-11-22T07:20:36.127Z,68.82
2022-11-22T07:21:39.913Z,67.90
2022-11-22T07:22:42.641Z,71.32
2022-11-22T07:23:49.367Z,73.22
2022-11-22T07:24:53.085Z,62.85
2022-11-22T07:25:55.859Z,63.03
2022-11-22T07:26:59.573Z,66.68
2022-11-22T07:28:02.261Z,72.22
2022-11-22T07:29:06.136Z,77.43
2022-11-22T07:30:10.414Z,87.40
2022-11-22T07:31:15.396Z,84.13
2022-11-22T07:32:18.163Z,91.32
2022-11-22T07:33:21.832Z,84.63
2022-11-22T07:34:25.555Z,84.40
2022-11-22T07:35:29.179Z,80.53
2022-11-22T07:36:32.929Z,81.18
2022-11-22T07:37:35.676Z,65.60
2022-11-22T07:38:40.048Z,71.72
2022-11-22T07:39:45.244Z,66.82
2022-11-22T07:40:47.953Z,71.32
2022-11-22T07:41:51.617Z,69.95
2022-11-22T07:42:58.328Z,68.20
2022-11-22T07:44:02.522Z,79.57
2022-11-22T07:45:05.957Z,70.47
2022-11-22T07:46:13.275Z,79.13
2022-11-22T07:47:21.458Z,76.13
2022-11-22T07:48:26.656Z,86.00
2022-11-22T07:49:30.767Z,168.35
2022-11-22T07:50:34.414Z,256.15
2022-11-22T07:51:38.126Z,117.88
2022-11-22T07:52:40.876Z,91.57
2022-11-22T07:53:44.716Z,96.28
2022-11-22T07:54:49.835Z,132.02
2022-11-22T07:55:52.574Z,132.88
2022-11-22T07:56:56.265Z,91.05
2022-11-22T07:57:59.616Z,94.05
2022-11-22T07:59:03.435Z,109.82
2022-11-22T08:00:07.279Z,94.07
2022-11-22T08:01:12.374Z,94.57
2022-11-22T08:02:15.186Z,94.55
2022-11-22T08:03:22.665Z,98.95
2022-11-22T08:04:29.185Z,98.03
2022-11-22T08:05:31.836Z,106.93
2022-11-22T08:06:35.535Z,102.43
2022-11-22T08:07:38.347Z,92.63
2022-11-22T08:08:42.365Z,93.45
2022-11-22T08:09:45.132Z,85.00
2022-11-22T08:10:50.241Z,68.97
2022-11-22T08:11:52.995Z,61.25
2022-11-22T08:13:00.512Z,88.68
2022-11-22T08:14:05.473Z,71.97
2022-11-22T08:15:10.174Z,62.63
2022-11-22T08:16:16.065Z,79.57
2022-11-22T08:17:19.796Z,87.68
2022-11-22T08:18:22.593Z,71.78
2022-11-22T08:19:26.392Z,57.08
2022-11-22T08:20:29.033Z,49.17
2022-11-22T08:21:32.814Z,54.17
2022-11-22T08:22:35.937Z,51.15
2022-11-22T08:23:40.379Z,51.42
2022-11-22T08:24:44.187Z,53.45
2022-11-22T08:25:49.473Z,58.05
2022-11-22T08:26:52.584Z,57.75
2022-11-22T08:27:56.284Z,61.33
2022-11-22T08:28:59.995Z,62.08
2022-11-22T08:30:02.753Z,62.42
2022-11-22T08:31:08.678Z,60.15
2022-11-22T08:32:12.479Z,56.58
2022-11-22T08:33:16.375Z,47.03
2022-11-22T08:34:20.072Z,59.65
2022-11-22T08:35:22.864Z,50.10
2022-11-22T08:36:26.610Z,47.45
2022-11-22T08:37:29.330Z,47.95
2022-11-22T08:38:33.336Z,50.95
2022-11-22T08:39:37.034Z,47.22
2022-11-22T08:40:42.472Z,45.63
2022-11-22T08:41:47.645Z,45.13
2022-11-22T08:42:50.305Z,50.50
2022-11-22T08:43:55.456Z,48.50
2022-11-22T08:44:59.273Z,47.88
2022-11-22T08:46:03.413Z,44.40
2022-11-22T08:47:07.205Z,48.05
2022-11-22T08:48:10.970Z,47.00
2022-11-22T08:49:14.997Z,42.45
2022-11-22T08:50:18.363Z,40.90
2022-11-22T08:51:22.137Z,39.72
2022-11-22T08:52:25.915Z,36.95
2022-11-22T08:53:30.104Z,36.33
2022-11-22T08:54:37.687Z,36.22
2022-11-22T08:55:42.551Z,33.10
2022-11-22T08:56:47.703Z,41.90
2022-11-22T08:57:50.350Z,33.00
2022-11-22T08:58:54.127Z,33.20
2022-11-22T08:59:57.208Z,32.97
2022-11-22T09:01:06.206Z,26.85
2022-11-22T09:02:10.995Z,29.42
2022-11-22T09:03:13.815Z,28.52
2022-11-22T09:04:17.589Z,27.77
2022-11-22T09:05:20.306Z,28.02
2022-11-22T09:10:35.584Z,26.63
2022-11-22T09:11:38.294Z,22.63
2022-11-22T09:12:46.864Z,23.77
2022-11-22T09:13:50.551Z,25.02
2022-11-22T09:14:54.507Z,23.63
2022-11-22T09:16:02.041Z,23.27
2022-11-22T09:17:06.385Z,24.45
2022-11-22T09:18:09.061Z,22.50
2022-11-22T09:19:12.775Z,25.30
2022-11-22T09:20:15.881Z,25.33
2022-11-22T09:21:20.895Z,24.88
2022-11-22T09:22:28.457Z,27.15
2022-11-22T09:23:33.101Z,22.15
2022-11-22T09:24:36.975Z,26.60
2022-11-22T09:25:39.656Z,22.15
2022-11-22T09:26:43.431Z,17.88
2022-11-22T09:27:48.627Z,18.42
2022-11-22T09:28:53.305Z,21.00
2022-11-22T09:29:57.043Z,19.85
2022-11-22T09:31:00.952Z,17.92
2022-11-22T09:32:04.822Z,20.20
2022-11-22T09:33:08.464Z,20.92
2022-11-22T09:34:12.334Z,17.80
2022-11-22T09:35:17.535Z,15.02
2022-11-22T09:36:22.029Z,14.43
2022-11-22T09:37:25.841Z,14.73
2022-11-22T09:38:29.904Z,13.10
2022-11-22T09:39:33.883Z,15.20
2022-11-22T09:40:37.943Z,10.98
2022-11-22T09:42:06.142Z,11.15
2022-11-22T09:43:18.766Z,10.77
2022-11-22T09:44:24.812Z,9.98
2022-11-22T09:45:56.047Z,11.43
2022-11-22T09:47:04.575Z,7.80
2022-11-22T09:48:26.938Z,9.02
2022-11-22T09:49:31.890Z,11.98
2022-11-22T09:50:43.991Z,9.10
2022-11-22T09:51:51.103Z,8.95
2022-11-22T09:52:56.464Z,9.65
2022-11-22T09:54:05.668Z,11.00
2022-11-22T09:55:16.790Z,9.88
2022-11-22T09:56:24.585Z,8.30
2022-11-22T09:57:32.359Z,8.98
2022-11-22T09:58:40.358Z,11.90
2022-11-22T09:59:46.067Z,10.43
2022-11-22T10:00:52.528Z,9.68
2022-11-22T10:02:16.929Z,9.40
2022-11-22T10:03:28.453Z,8.73
2022-11-22T10:04:37.235Z,8.55
2022-11-22T10:05:51.590Z,7.07
2022-11-22T10:06:57.943Z,8.05
2022-11-22T10:08:04.678Z,8.93
2022-11-22T10:09:20.685Z,8.85
2022-11-22T10:10:27.945Z,5.93
2022-11-22T10:11:37.192Z,6.32
2022-11-22T10:12:46.205Z,6.30
2022-11-22T10:13:57.854Z,6.65
2022-11-22T10:15:05.229Z,4.78
2022-11-22T10:16:14.646Z,5.40
2022-11-22T10:17:25.843Z,5.53
2022-11-22T10:18:41.202Z,5.95
2022-11-22T10:19:47.388Z,5.85
2022-11-22T10:20:50.189Z,6.63
2022-11-22T10:21:53.874Z,6.30
2022-11-22T10:22:57.466Z,4.43
2022-11-22T10:24:01.216Z,6.28
2022-11-22T10:25:10.083Z,6.03
2022-11-22T10:26:23.113Z,6.15
2022-11-22T10:27:29.776Z,6.28
2022-11-22T10:28:36.726Z,4.03
2022-11-22T10:29:47.304Z,5.13
2022-11-22T10:30:57.286Z,4.70
2022-11-22T10:32:07.416Z,3.60
2022-11-22T10:33:14.217Z,5.03
2022-11-22T10:34:26.475Z,4.68
2022-11-22T10:35:45.445Z,3.63
2022-11-22T10:36:52.652Z,7.20
2022-11-22T10:38:02.985Z,5.82
2022-11-22T10:39:19.435Z,5.43
2022-11-22T10:40:27.130Z,4.97
2022-11-22T10:41:40.518Z,4.97
2022-11-22T10:42:58.405Z,6.10
2022-11-22T10:44:09.473Z,3.85
2022-11-22T10:45:18.083Z,3.33
2022-11-22T10:46:28.057Z,3.45
2022-11-22T10:47:51.645Z,3.67
2022-11-22T10:49:04.854Z,5.75
2022-11-22T10:50:15.097Z,4.93
2022-11-22T10:51:23.606Z,3.42
2022-11-22T10:52:35.131Z,5.03
2022-11-22T10:53:47.310Z,4.18
2022-11-22T10:54:55.375Z,2.67
2022-11-22T10:56:02.046Z,2.78
2022-11-22T10:57:13.167Z,2.60
2022-11-22T10:58:25.022Z,3.08
2022-11-22T10:59:41.642Z,3.22
2022-11-22T11:00:49.230Z,2.63
2022-11-22T11:02:24.161Z,4.75
2022-11-22T11:03:30.756Z,11.73
2022-11-22T11:04:37.072Z,3.47
2022-11-22T11:07:12.675Z,5.43
2022-11-22T11:08:41.995Z,4.35
2022-11-22T11:11:07.895Z,7.32
2022-11-22T11:12:17.285Z,5.68
2022-11-22T11:13:24.595Z,6.57
2022-11-22T11:14:32.554Z,2.83
2022-11-22T11:15:39.168Z,2.33
2022-11-22T11:16:44.496Z,7.63
2022-11-22T11:17:52.517Z,2.85
2022-11-22T11:18:58.985Z,2.78
2022-11-22T11:20:05.065Z,4.88
2022-11-22T11:21:09.162Z,4.78
2022-11-22T11:22:18.575Z,3.13
2022-11-22T11:23:27.045Z,3.13
2022-11-22T11:24:32.440Z,3.47
2022-11-22T11:25:40.534Z,3.40
2022-11-22T11:26:45.932Z,2.63
2022-11-22T11:27:48.884Z,4.95
2022-11-22T11:28:52.917Z,13.90
2022-11-22T11:30:02.765Z,2.47
2022-11-22T11:31:09.704Z,2.80
2022-11-22T11:32:15.226Z,2.90
2022-11-22T11:33:22.006Z,3.22
2022-11-22T11:34:28.280Z,4.53
2022-11-22T11:35:32.747Z,4.63
2022-11-22T11:36:43.712Z,18.30
2022-11-22T11:37:46.560Z,4.65
2022-11-22T11:38:55.978Z,6.85
2022-11-22T11:39:58.857Z,4.18
2022-11-22T11:41:20.142Z,5.30
2022-11-22T11:42:25.945Z,7.18
2022-11-22T11:43:29.625Z,3.65
2022-11-22T11:44:36.649Z,8.55
2022-11-22T11:45:39.544Z,2.95
2022-11-22T11:46:49.193Z,7.80
2022-11-22T11:47:53.315Z,2.28
2022-11-22T11:48:58.285Z,4.20
2022-11-22T11:50:01.407Z,3.42
2022-11-22T11:51:10.346Z,8.40
2022-11-22T11:52:20.895Z,12.32
2022-11-22T11:53:26.304Z,4.07
2022-11-22T11:54:40.880Z,9.52
2022-11-22T11:55:43.729Z,3.42
2022-11-22T11:56:49.696Z,3.13
2022-11-22T11:57:53.223Z,2.60
2022-11-22T11:58:58.596Z,2.00
2022-11-22T12:00:05.098Z,3.72
2022-11-22T12:01:11.605Z,7.72
2022-11-22T12:02:17.374Z,2.30
2022-11-22T12:03:23.244Z,28.70
2022-11-22T12:04:30.141Z,5.82
2022-11-22T12:05:34.886Z,4.93
2022-11-22T12:06:38.602Z,3.20
2022-11-22T12:07:45.043Z,2.53
2022-11-22T12:08:47.940Z,2.50
2022-11-22T12:09:53.036Z,2.25
2022-11-22T12:10:59.751Z,2.67
2022-11-22T12:12:30.016Z,4.40
2022-11-22T12:13:57.657Z,4.10
2022-11-22T12:15:11.697Z,4.72
2022-11-22T12:16:20.657Z,2.42
2022-11-22T12:17:26.761Z,8.52
2022-11-22T12:18:40.323Z,7.65
2022-11-22T12:19:52.450Z,3.70
2022-11-22T12:21:02.838Z,6.13
2022-11-22T12:22:29.431Z,4.03
2022-11-22T12:23:45.473Z,11.48
2022-11-22T12:25:24.350Z,8.95
2022-11-22T12:26:20.124Z,4.60
2022-11-22T12:27:23.961Z,4.05
2022-11-22T12:28:29.344Z,4.93
2022-11-22T12:29:35.598Z,5.05
2022-11-22T12:30:39.925Z,5.20
2022-11-22T12:31:46.463Z,3.95
2022-11-22T12:32:56.561Z,13.63
2022-11-22T12:34:03.956Z,15.80
2022-11-22T12:35:12.963Z,8.13
2022-11-22T12:36:18.324Z,7.57
2022-11-22T12:37:25.606Z,9.65
2022-11-22T12:38:32.178Z,8.48
2022-11-22T12:39:38.105Z,2.97
2022-11-22T12:40:43.470Z,5.78
2022-11-22T12:41:48.246Z,8.75
2022-11-22T12:42:54.508Z,4.07
2022-11-22T12:43:59.986Z,5.70
2022-11-22T12:45:07.394Z,9.48
2022-11-22T12:46:12.760Z,22.50
2022-11-22T12:47:19.827Z,5.95
2022-11-22T12:48:26.257Z,17.52
2022-11-22T12:49:34.549Z,8.38
2022-11-22T12:50:41.914Z,11.68
2022-11-22T12:51:49.014Z,5.90
2022-11-22T12:52:55.845Z,9.57
2022-11-22T12:54:03.334Z,18.67
2022-11-22T12:55:10.874Z,8.32
2022-11-22T12:56:26.156Z,9.85
2022-11-22T12:57:38.685Z,8.35
2022-11-22T12:58:47.793Z,7.53
2022-11-22T12:59:56.267Z,8.20
2022-11-22T13:01:07.475Z,8.88
2022-11-22T13:02:17.259Z,7.82
2022-11-22T13:03:24.056Z,5.47
2022-11-22T13:04:32.197Z,7.00
2022-11-22T13:05:40.684Z,6.32
2022-11-22T13:06:49.985Z,7.35
2022-11-22T13:07:58.597Z,7.50
2022-11-22T13:09:04.673Z,3.72
2022-11-22T13:10:10.729Z,11.73
2022-11-22T13:11:18.403Z,12.32
2022-11-22T13:12:31.048Z,10.18
2022-11-22T13:13:38.637Z,5.78
2022-11-22T13:14:46.126Z,8.40
2022-11-22T13:15:51.457Z,7.82
2022-11-22T13:16:55.688Z,9.77
2022-11-22T13:17:58.903Z,4.43
2022-11-22T13:19:05.435Z,8.40
2022-11-22T13:20:16.085Z,13.70
2022-11-22T13:21:27.316Z,27.67
2022-11-22T13:22:34.215Z,8.52
2022-11-22T13:23:54.804Z,6.40
2022-11-22T13:25:20.996Z,6.05
2022-11-22T13:26:30.896Z,6.95
2022-11-22T13:27:37.513Z,9.90
2022-11-22T13:28:42.737Z,5.20
2022-11-22T13:29:46.034Z,5.63
2022-11-22T13:31:05.217Z,8.95
2022-11-22T13:32:23.220Z,11.07
2022-11-22T13:33:26.610Z,7.80
2022-11-22T13:34:31.012Z,12.40
2022-11-22T13:35:36.968Z,12.70
2022-11-22T13:36:43.896Z,6.88
2022-11-22T13:37:48.716Z,7.80
2022-11-22T13:38:52.572Z,15.68
2022-11-22T13:39:56.556Z,7.85
2022-11-22T13:41:23.532Z,9.80
2022-11-22T13:42:30.772Z,11.45
2022-11-22T13:43:51.929Z,6.55
2022-11-22T13:45:21.804Z,8.98
2022-11-22T13:47:00.707Z,22.10
2022-11-22T13:48:04.765Z,13.02
2022-11-22T13:49:14.169Z,15.45
2022-11-22T13:50:54.696Z,19.80
2022-11-22T13:51:59.618Z,18.90
2022-11-22T13:53:23.011Z,19.40
2022-11-22T13:54:58.971Z,19.35
2022-11-22T13:56:39.667Z,22.13
2022-11-22T13:57:44.495Z,22.38
2022-11-22T13:58:56.067Z,25.17
2022-11-22T14:00:50.664Z,23.27
2022-11-22T14:02:00.183Z,23.50
2022-11-22T14:03:29.718Z,28.20
2022-11-22T14:04:44.335Z,24.90
2022-11-22T14:05:48.448Z,23.05
2022-11-22T14:06:53.716Z,23.45
2022-11-22T14:07:59.186Z,24.45
2022-11-22T14:09:32.077Z,25.63
2022-11-22T14:10:39.846Z,24.27
2022-11-22T14:11:49.213Z,26.48
2022-11-22T14:13:06.090Z,26.52
2022-11-22T14:14:17.417Z,26.20
2022-11-22T14:15:32.416Z,26.05
2022-11-22T14:16:44.453Z,25.00
2022-11-22T14:17:54.328Z,27.55
2022-11-22T14:19:09.347Z,24.33
2022-11-22T14:20:25.901Z,24.98
2022-11-22T14:21:47.430Z,28.98
2022-11-22T14:22:55.785Z,29.08
2022-11-22T14:24:06.505Z,29.45